Time;durP1;ratioP1;P1;durP2;ratioP2;P2;SDS_P1;SDS_P2;PMS_P1;PMS_P2;Temp;Humidity;BMP_temperature;BMP_pressure;BME280_temperature;BME280_humidity;BME280_pressure;Samples;Min_cycle;Max_cycle;Signal;HPM_P1;HPM_P2
2023/01/22 00:00:39;;;;;;;10.30;5.75;;;;;;;-0.23;100.00;103026.66;7393132;19;20193;-63
2023/01/22 00:03:09;;;;;;;12.40;5.95;;;;;;;-0.22;100.00;103026.84;7391391;19;20190;-62
2023/01/22 00:05:38;;;;;;;11.63;6.10;;;;;;;-0.29;100.00;103029.38;7393794;19;20150;-63
2023/01/22 00:08:10;;;;;;;7.75;5.40;;;;;;;-0.28;100.00;103016.88;7391353;19;20182;-63
2023/01/22 00:10:40;;;;;;;12.85;7.55;;;;;;;-0.31;100.00;103015.59;7392832;19;20166;-63
2023/01/22 00:13:09;;;;;;;10.10;5.50;;;;;;;-0.33;100.00;103017.00;7391907;19;20214;-63
2023/01/22 00:15:40;;;;;;;10.45;5.70;;;;;;;-0.34;100.00;103010.13;7393894;19;20141;-63
2023/01/22 00:18:10;;;;;;;11.15;6.63;;;;;;;-0.37;100.00;103002.16;7391708;19;20670;-64
2023/01/22 00:20:39;;;;;;;13.10;6.15;;;;;;;-0.39;100.00;103001.97;7392621;19;20199;-63
2023/01/22 00:23:12;;;;;;;11.43;6.40;;;;;;;-0.34;100.00;102994.91;7391653;19;20539;-63
2023/01/22 00:25:42;;;;;;;11.73;6.95;;;;;;;-0.29;100.00;102992.19;7393294;19;20164;-63
2023/01/22 00:28:11;;;;;;;13.10;6.57;;;;;;;-0.38;100.00;102987.63;7390744;19;20190;-63
2023/01/22 00:30:41;;;;;;;10.10;5.97;;;;;;;-0.38;100.00;102983.47;7392388;19;20199;-63
2023/01/22 00:33:10;;;;;;;10.95;6.50;;;;;;;-0.28;100.00;102986.44;7392187;19;20186;-63
2023/01/22 00:35:40;;;;;;;9.60;5.65;;;;;;;-0.36;100.00;102981.13;7393875;19;20135;-63
2023/01/22 00:38:12;;;;;;;11.63;7.05;;;;;;;-0.28;100.00;102983.88;7389333;19;20190;-63
2023/01/22 00:40:41;;;;;;;13.23;6.82;;;;;;;-0.28;100.00;102975.34;7392116;19;20549;-63
2023/01/22 00:43:11;;;;;;;13.65;7.35;;;;;;;-0.29;100.00;102976.97;7390767;19;21031;-63
2023/01/22 00:45:41;;;;;;;10.23;5.57;;;;;;;-0.28;100.00;102972.81;7392693;19;20135;-63
2023/01/22 00:48:10;;;;;;;11.32;5.75;;;;;;;-0.31;100.00;102970.81;7390498;19;20186;-64
2023/01/22 00:50:39;;;;;;;12.73;6.15;;;;;;;-0.28;100.00;102975.34;7391680;19;20175;-63
2023/01/22 00:53:11;;;;;;;11.15;7.00;;;;;;;-0.28;100.00;102970.28;7391013;19;20222;-63
2023/01/22 00:55:41;;;;;;;8.65;5.70;;;;;;;-0.36;100.00;102971.00;7393364;19;20509;-63
2023/01/22 00:58:11;;;;;;;9.80;5.88;;;;;;;-0.37;100.00;102964.09;7396860;19;20220;-63
2023/01/22 01:00:41;;;;;;;12.35;6.60;;;;;;;-0.39;100.00;102965.53;7398141;19;20793;-63
2023/01/22 01:05:52;;;;;;;9.77;5.90;;;;;;;-0.39;100.00;102968.06;7395972;19;20143;-63
2023/01/22 01:08:28;;;;;;;13.10;6.63;;;;;;;-0.20;100.00;102961.94;7394790;19;20194;-63
2023/01/22 01:10:58;;;;;;;10.55;5.68;;;;;;;-0.08;100.00;102960.00;7394901;19;20196;-63
2023/01/22 01:13:28;;;;;;;13.65;6.38;;;;;;;-0.12;100.00;102965.41;7396147;19;20194;-63
2023/01/22 01:16:02;;;;;;;17.42;6.28;;;;;;;-0.17;100.00;102969.94;7396837;19;20643;-63
2023/01/22 01:18:32;;;;;;;11.90;5.93;;;;;;;-0.05;100.00;102969.63;7393185;19;20292;-63
2023/01/22 01:21:03;;;;;;;10.35;6.10;;;;;;;-0.09;100.00;102975.03;7393851;19;20177;-63
2023/01/22 01:23:36;;;;;;;12.95;5.95;;;;;;;-0.11;100.00;102961.28;7393981;19;20194;-64
2023/01/22 01:26:07;;;;;;;9.30;5.68;;;;;;;-0.04;100.00;102963.81;7397318;19;20131;-63
2023/01/22 01:28:37;;;;;;;11.90;5.63;;;;;;;-0.01;100.00;102961.63;7394627;19;20224;-63
2023/01/22 01:31:08;;;;;;;8.88;5.45;;;;;;;-0.15;100.00;102957.47;7394031;19;20174;-64
2023/01/22 01:33:38;;;;;;;11.05;5.85;;;;;;;-0.09;100.00;102955.66;7391465;19;20274;-63
2023/01/22 01:36:10;;;;;;;9.95;5.20;;;;;;;-0.06;100.00;102957.66;7395865;19;20171;-63
2023/01/22 01:38:42;;;;;;;11.10;5.75;;;;;;;0.04;100.00;102955.47;7392154;19;20656;-63
2023/01/22 01:41:14;;;;;;;10.60;5.32;;;;;;;-0.16;100.00;102956.53;7394434;19;20174;-63
2023/01/22 01:43:43;;;;;;;8.63;5.15;;;;;;;-0.09;100.00;102949.66;7394319;19;20195;-63
2023/01/22 01:46:18;;;;;;;8.88;5.07;;;;;;;-0.17;100.00;102954.72;7395813;19;20163;-63
2023/01/22 01:48:49;;;;;;;10.75;5.30;;;;;;;-0.18;100.00;102958.00;7392936;19;20193;-63
2023/01/22 01:51:21;;;;;;;9.73;5.10;;;;;;;-0.18;100.00;102958.00;7394845;19;20542;-62
2023/01/22 01:53:54;;;;;;;16.23;6.10;;;;;;;-0.06;100.00;102960.19;7394085;19;20230;-64
2023/01/22 01:56:26;;;;;;;11.88;5.55;;;;;;;-0.12;100.00;102964.53;7396050;19;20139;-63
2023/01/22 01:59:01;;;;;;;9.20;5.40;;;;;;;-0.22;100.00;102958.34;7393488;19;20190;-63
2023/01/22 02:01:30;;;;;;;9.38;5.25;;;;;;;-0.12;100.00;102962.00;7397741;19;20142;-63
2023/01/22 02:04:00;;;;;;;8.70;5.60;;;;;;;0.06;100.00;102958.22;7393110;19;20651;-64
2023/01/22 02:09:15;;;;;;;15.20;6.55;;;;;;;-0.14;100.00;102960.16;7392181;19;20197;-63
2023/01/22 02:11:44;;;;;;;8.93;5.57;;;;;;;-0.21;100.00;102957.59;7397594;19;20484;-63
2023/01/22 02:14:17;;;;;;;8.45;5.05;;;;;;;-0.26;100.00;102958.66;7395872;19;20187;-63
2023/01/22 02:16:46;;;;;;;9.57;5.35;;;;;;;-0.10;100.00;102958.88;7396633;19;20505;-64
2023/01/22 02:19:16;;;;;;;9.35;5.70;;;;;;;-0.09;100.00;102954.72;7394990;19;20207;-63
2023/01/22 02:21:48;;;;;;;9.48;5.28;;;;;;;-0.03;100.00;102952.94;7397409;19;20142;-63
2023/01/22 02:24:18;;;;;;;9.00;5.00;;;;;;;-0.02;100.00;102950.59;7394770;19;20194;-63
2023/01/22 02:26:48;;;;;;;8.95;5.28;;;;;;;-0.11;100.00;102953.66;7396486;19;20508;-63
2023/01/22 02:29:17;;;;;;;11.55;6.00;;;;;;;0.02;100.00;102946.78;7394840;19;20194;-64
2023/01/22 02:31:47;;;;;;;8.32;4.97;;;;;;;-0.07;100.00;102964.34;7396869;19;20142;-63
2023/01/22 02:34:16;;;;;;;9.32;5.45;;;;;;;-0.09;100.00;102952.19;7395231;19;20195;-63
2023/01/22 02:36:48;;;;;;;9.13;5.18;;;;;;;-0.02;100.00;102952.22;7396801;19;20612;-63
2023/01/22 02:39:18;;;;;;;8.95;4.95;;;;;;;-0.09;100.00;102955.66;7393553;19;20190;-63
2023/01/22 02:41:47;;;;;;;8.30;5.03;;;;;;;-0.10;100.00;102952.94;7396979;19;20139;-63
2023/01/22 02:44:17;;;;;;;10.65;6.30;;;;;;;-0.17;100.00;102952.19;7394490;19;20212;-63
2023/01/22 02:46:46;;;;;;;10.05;5.30;;;;;;;-0.16;100.00;102945.47;7396331;19;20146;-63
2023/01/22 02:49:16;;;;;;;8.98;5.32;;;;;;;-0.12;100.00;102945.13;7393746;19;20568;-63
2023/01/22 02:51:46;;;;;;;9.63;4.05;;;;;;;-0.26;100.00;102938.38;7396173;19;20146;-63
2023/01/22 02:54:18;;;;;;;10.00;4.45;;;;;;;-0.21;100.00;102941.50;7394491;19;20214;-64
2023/01/22 02:56:47;;;;;;;8.93;4.63;;;;;;;-0.10;100.00;102930.97;7395604;19;20141;-63
2023/01/22 02:59:17;;;;;;;8.15;5.00;;;;;;;-0.06;100.00;102932.28;7393993;19;20584;-64
2023/01/22 03:01:46;;;;;;;9.50;5.30;;;;;;;-0.09;100.00;102935.34;7396069;19;20510;-63
2023/01/22 03:04:15;;;;;;;8.95;4.90;;;;;;;-0.01;100.00;102943.88;7392851;19;20183;-63
2023/01/22 03:06:47;;;;;;;9.93;5.20;;;;;;;0.05;100.00;102943.72;7395353;19;20150;-63
2023/01/22 03:09:19;;;;;;;12.27;6.28;;;;;;;0.14;100.00;102937.16;7391242;19;20613;-64
2023/01/22 03:11:49;;;;;;;10.00;5.75;;;;;;;0.03;100.00;102938.44;7396191;19;20138;-63
2023/01/22 03:22:25;;;;;;;12.88;6.00;;;;;;;0.27;100.00;102924.31;7394594;19;20479;-63
2023/01/22 03:24:59;;;;;;;11.25;4.18;;;;;;;0.15;100.00;102935.56;7395261;19;20130;-64
2023/01/22 03:27:30;;;;;;;7.32;4.80;;;;;;;0.01;100.00;102932.28;7393235;19;20139;-64
2023/01/22 03:29:59;;;;;;;9.38;5.38;;;;;;;0.20;100.00;102931.94;7394963;19;20229;-64
2023/01/22 03:32:30;;;;;;;9.25;4.65;;;;;;;-0.04;100.00;102935.91;7393800;19;20142;-63
2023/01/22 03:35:00;;;;;;;8.35;4.90;;;;;;;0.06;100.00;102932.81;7395109;19;20158;-63
2023/01/22 03:37:30;;;;;;;9.23;5.50;;;;;;;0.16;100.00;102933.22;7392191;19;20145;-64
2023/01/22 03:40:02;;;;;;;9.25;4.78;;;;;;;0.18;100.00;102933.38;7394166;19;20170;-64
2023/01/22 03:42:31;;;;;;;9.98;5.97;;;;;;;0.09;100.00;102923.00;7393674;19;20213;-64
2023/01/22 03:45:01;;;;;;;6.40;4.22;;;;;;;-0.11;100.00;102919.00;7394991;19;20149;-64
2023/01/22 03:47:30;;;;;;;9.18;5.20;;;;;;;-0.07;100.00;102931.34;7392424;19;20215;-63
2023/01/22 03:50:00;;;;;;;9.88;4.63;;;;;;;0.18;100.00;102911.44;7393917;19;20377;-64
2023/01/22 03:52:30;;;;;;;7.38;4.28;;;;;;;0.04;100.00;102916.50;7393409;19;20155;-63
2023/01/22 03:55:02;;;;;;;8.98;4.75;;;;;;;0.09;100.00;102917.94;7394551;19;20140;-63
2023/01/22 03:57:32;;;;;;;7.85;3.97;;;;;;;0.03;100.00;102918.13;7392645;19;20600;-63
2023/01/22 04:00:05;;;;;;;8.13;4.55;;;;;;;0.02;100.00;102918.84;7393643;19;20171;-63
2023/01/22 04:02:36;;;;;;;9.07;4.75;;;;;;;0.07;100.00;102915.25;7392513;19;20598;-63
2023/01/22 04:05:06;;;;;;;7.50;4.93;;;;;;;0.06;100.00;102920.13;7394739;19;20130;-63
2023/01/22 04:07:36;;;;;;;8.75;5.05;;;;;;;0.16;100.00;102915.44;7391708;19;20186;-63
2023/01/22 04:10:10;;;;;;;10.47;5.10;;;;;;;0.10;100.00;102920.66;7393661;19;20181;-63
2023/01/22 04:12:39;;;;;;;11.52;4.30;;;;;;;0.02;100.00;102921.41;7391164;19;20454;-64
2023/01/22 04:15:11;;;;;;;9.35;4.60;;;;;;;0.01;100.00;102916.13;7394993;19;20159;-63
2023/01/22 04:17:40;;;;;;;10.95;4.90;;;;;;;0.06;100.00;102917.59;7390431;19;20198;-64
2023/01/22 04:20:12;;;;;;;6.50;3.47;;;;;;;0.05;100.00;102906.50;7391927;19;20658;-64
2023/01/22 04:22:41;;;;;;;8.27;4.60;;;;;;;0.06;100.00;102908.31;7391231;19;20240;-63
2023/01/22 04:25:13;;;;;;;7.10;4.47;;;;;;;0.12;100.00;102909.06;7393767;19;20143;-64
2023/01/22 04:27:43;;;;;;;6.50;4.07;;;;;;;-0.02;100.00;102912.50;7389984;19;20215;-63
2023/01/22 04:30:14;;;;;;;9.68;4.63;;;;;;;0.03;100.00;102907.06;7395210;19;20670;-63
2023/01/22 04:32:43;;;;;;;6.30;4.28;;;;;;;0.05;100.00;102908.16;7398044;19;20200;-63
2023/01/22 04:35:13;;;;;;;7.70;4.15;;;;;;;0.05;100.00;102906.50;7401430;19;20179;-63
2023/01/22 04:37:42;;;;;;;10.68;4.75;;;;;;;0.16;100.00;102906.91;7397042;19;20642;-63
2023/01/22 04:40:15;;;;;;;11.48;5.18;;;;;;;0.19;100.00;102895.47;7398517;19;20174;-64
2023/01/22 04:42:45;;;;;;;12.80;5.60;;;;;;;0.13;100.00;102890.59;7398166;19;20205;-63
2023/01/22 04:45:15;;;;;;;10.93;4.93;;;;;;;0.31;100.00;102896.00;7401117;19;20155;-64
2023/01/22 04:47:45;;;;;;;8.80;4.20;;;;;;;0.15;100.00;102889.84;7397253;19;20194;-63
2023/01/22 04:50:18;;;;;;;12.40;5.13;;;;;;;0.18;100.00;102888.56;7399186;19;20170;-64
2023/01/22 04:52:48;;;;;;;7.30;4.22;;;;;;;0.22;100.00;102884.75;7397835;19;20187;-63
2023/01/22 04:55:21;;;;;;;7.28;4.30;;;;;;;0.04;100.00;102884.41;7400513;19;20159;-64
2023/01/22 04:57:50;;;;;;;7.18;4.47;;;;;;;0.18;100.00;102882.56;7375135;19;20676;-63
2023/01/22 05:00:21;;;;;;;8.30;4.43;;;;;;;0.24;100.00;102888.38;7396993;19;20175;-64
2023/01/22 05:02:50;;;;;;;9.45;5.45;;;;;;;0.12;100.00;102891.28;7397145;19;20667;-63
2023/01/22 05:05:20;;;;;;;7.07;3.70;;;;;;;0.17;100.00;102883.31;7400336;19;20138;-63
2023/01/22 05:07:49;;;;;;;7.05;4.60;;;;;;;0.34;100.00;102885.28;7397350;19;20198;-63
2023/01/22 05:10:22;;;;;;;9.80;4.60;;;;;;;0.13;100.00;102885.50;7399216;19;20191;-64
2023/01/22 05:12:51;;;;;;;13.32;4.72;;;;;;;0.30;100.00;102888.22;7397278;19;20197;-63
2023/01/22 05:15:21;;;;;;;8.57;5.17;;;;;;;0.31;100.00;102885.84;7399833;19;20149;-63
2023/01/22 05:17:53;;;;;;;8.65;4.35;;;;;;;0.11;100.00;102889.47;7396836;19;20445;-63
2023/01/22 05:20:24;;;;;;;8.90;4.18;;;;;;;0.17;100.00;102896.00;7397415;19;20203;-63
2023/01/22 05:22:53;;;;;;;8.07;4.97;;;;;;;0.22;100.00;102887.31;7396357;19;20190;-63
2023/01/22 05:25:25;;;;;;;8.57;4.68;;;;;;;0.27;100.00;102891.31;7400339;19;20145;-63
2023/01/22 05:27:55;;;;;;;11.40;5.18;;;;;;;0.24;100.00;102891.84;7396701;19;20262;-63
2023/01/22 05:30:24;;;;;;;7.22;4.30;;;;;;;0.38;100.00;102884.94;7398303;19;20505;-64
2023/01/22 05:32:57;;;;;;;8.77;4.95;;;;;;;0.30;100.00;102894.19;7395950;19;20194;-64
2023/01/22 05:35:27;;;;;;;6.60;4.40;;;;;;;0.17;100.00;102889.31;7399346;19;20143;-64
2023/01/22 05:37:57;;;;;;;7.53;4.60;;;;;;;0.30;100.00;102884.03;7396180;19;20198;-63
2023/01/22 05:40:29;;;;;;;10.38;4.75;;;;;;;0.40;100.00;102884.38;7397816;19;20193;-64
2023/01/22 05:42:59;;;;;;;7.80;4.30;;;;;;;0.45;100.00;102884.03;7394488;19;20730;-64
2023/01/22 05:45:28;;;;;;;8.07;4.45;;;;;;;0.33;100.00;102879.31;7399315;19;20450;-63
2023/01/22 05:47:58;;;;;;;9.68;4.30;;;;;;;0.27;100.00;102888.75;7393185;19;20559;-64
2023/01/22 05:50:27;;;;;;;9.03;3.90;;;;;;;0.23;100.00;102886.56;7398441;19;20647;-63
2023/01/22 05:52:57;;;;;;;9.52;4.70;;;;;;;0.27;100.00;102888.75;7395698;19;20442;-64
2023/01/22 05:55:32;;;;;;;10.00;4.68;;;;;;;0.27;100.00;102893.84;7398448;19;20515;-63
2023/01/22 05:58:02;;;;;;;10.90;4.80;;;;;;;0.21;100.00;102900.72;7396209;19;20194;-64
2023/01/22 06:00:34;;;;;;;9.85;3.78;;;;;;;0.24;100.00;102889.31;7397540;19;20175;-64
2023/01/22 06:03:04;;;;;;;10.23;5.57;;;;;;;0.36;100.00;102894.91;7394920;19;20662;-63
2023/01/22 06:05:33;;;;;;;8.18;4.50;;;;;;;0.26;100.00;102892.03;7398464;19;20146;-64
2023/01/22 06:08:03;;;;;;;9.30;4.32;;;;;;;0.34;100.00;102890.38;7395385;19;20194;-63
2023/01/22 06:10:35;;;;;;;8.20;4.45;;;;;;;0.34;100.00;102887.81;7397944;19;20177;-63
2023/01/22 06:13:05;;;;;;;7.75;4.57;;;;;;;0.38;100.00;102893.47;7395593;19;20754;-64
2023/01/22 06:15:34;;;;;;;11.25;5.32;;;;;;;0.46;100.00;102896.00;7398107;19;20131;-63
2023/01/22 06:18:04;;;;;;;7.72;4.50;;;;;;;0.32;100.00;102902.00;7395199;19;20196;-63
2023/01/22 06:20:35;;;;;;;10.30;4.90;;;;;;;0.37;100.00;102899.25;7397149;19;20174;-63
2023/01/22 06:23:06;;;;;;;7.55;4.50;;;;;;;0.35;100.00;102897.25;7394881;19;20191;-63
2023/01/22 06:25:38;;;;;;;9.50;4.90;;;;;;;0.49;100.00;102883.63;7398113;19;20135;-63
2023/01/22 06:28:07;;;;;;;10.97;4.27;;;;;;;0.37;100.00;102891.63;7394859;19;20198;-63
2023/01/22 06:30:37;;;;;;;9.52;3.92;;;;;;;0.36;100.00;102878.78;7397024;19;20951;-63
2023/01/22 06:33:07;;;;;;;9.05;5.03;;;;;;;0.48;100.00;102885.28;7394575;19;20190;-63
2023/01/22 06:35:37;;;;;;;12.13;5.57;;;;;;;0.47;100.00;102890.19;7397268;19;20135;-63
2023/01/22 06:38:06;;;;;;;12.75;4.70;;;;;;;0.42;100.00;102888.72;7394374;19;20569;-63
2023/01/22 06:40:38;;;;;;;7.90;4.37;;;;;;;0.51;100.00;102884.75;7396443;19;20527;-63
2023/01/22 06:43:09;;;;;;;7.43;3.75;;;;;;;0.62;100.00;102888.53;7394821;19;20476;-63
2023/01/22 06:45:39;;;;;;;8.68;3.65;;;;;;;0.45;100.00;102889.09;7395919;19;20148;-64
2023/01/22 06:48:12;;;;;;;12.50;4.37;;;;;;;0.55;100.00;102886.00;7393981;19;20215;-63
2023/01/22 06:50:41;;;;;;;7.78;4.40;;;;;;;0.58;100.00;102891.44;7394896;19;21004;-63
2023/01/22 06:53:11;;;;;;;8.80;4.57;;;;;;;0.60;100.00;102893.44;7394050;19;20215;-63
2023/01/22 06:55:43;;;;;;;13.27;5.03;;;;;;;0.55;100.00;102904.69;7394974;19;20387;-64
2023/01/22 06:58:13;;;;;;;8.45;4.15;;;;;;;0.59;100.00;102894.16;7393831;19;21385;-63
2023/01/22 07:00:42;;;;;;;13.93;4.90;;;;;;;0.65;100.00;102897.41;7394379;19;20598;-63
2023/01/22 07:03:13;;;;;;;9.00;4.50;;;;;;;0.62;100.00;102898.69;7393433;19;20451;-63
2023/01/22 07:05:42;;;;;;;7.75;4.28;;;;;;;0.65;100.00;102902.50;7394888;19;20145;-63
2023/01/22 07:08:15;;;;;;;8.32;4.40;;;;;;;0.57;100.00;102899.78;7394145;19;20201;-64
2023/01/22 07:10:47;;;;;;;11.90;4.70;;;;;;;0.81;100.00;102904.25;7394547;19;20189;-63
2023/01/22 07:13:17;;;;;;;11.17;4.73;;;;;;;0.75;100.00;102906.09;7393548;19;21064;-63
2023/01/22 07:15:46;;;;;;;7.20;3.73;;;;;;;0.81;100.00;102904.25;7394607;19;20749;-63
2023/01/22 07:18:18;;;;;;;10.50;4.70;;;;;;;0.70;100.00;102909.72;7393800;19;20479;-63
2023/01/22 07:20:48;;;;;;;9.27;4.90;;;;;;;0.76;100.00;102906.28;7394391;19;20537;-63
2023/01/22 07:23:18;;;;;;;11.60;5.07;;;;;;;0.75;100.00;102906.09;7392801;19;20226;-64
2023/01/22 07:25:50;;;;;;;10.20;5.35;;;;;;;0.78;100.00;102901.38;7394814;19;20497;-64
2023/01/22 07:28:19;;;;;;;11.07;4.97;;;;;;;0.81;100.00;102911.88;7392801;19;20198;-63
2023/01/22 07:30:48;;;;;;;9.70;5.03;;;;;;;0.82;100.00;102911.16;7394439;19;20435;-63
2023/01/22 07:33:18;;;;;;;14.83;5.80;;;;;;;0.85;100.00;102913.16;7393138;19;20464;-64
2023/01/22 07:35:55;;;;;;;11.47;5.57;;;;;;;1.01;100.00;102910.72;7394607;19;20740;-63
2023/01/22 07:38:24;;;;;;;11.60;4.60;;;;;;;0.93;100.00;102908.22;7392731;19;20446;-64
2023/01/22 07:41:01;;;;;;;11.80;4.97;;;;;;;0.92;100.00;102908.06;7393929;19;20833;-64
2023/01/22 07:43:34;;;;;;;13.70;5.50;;;;;;;0.92;100.00;102908.06;7393891;19;20467;-63
2023/01/22 07:46:04;;;;;;;16.13;5.77;;;;;;;0.97;100.00;102909.47;7394555;19;20407;-64
2023/01/22 07:48:33;;;;;;;13.03;5.57;;;;;;;0.97;100.00;102906.94;7390869;19;21005;-63
2023/01/22 07:51:07;;;;;;;14.13;4.70;;;;;;;0.81;100.00;102914.44;7393417;19;20465;-63
2023/01/22 07:53:36;;;;;;;9.93;4.73;;;;;;;0.88;100.00;102913.50;7393482;19;20444;-63
2023/01/22 07:56:09;;;;;;;21.58;8.57;;;;;;;1.14;100.00;102908.91;7393861;19;20398;-63
2023/01/22 07:58:40;;;;;;;18.00;7.40;;;;;;;1.06;100.00;102912.19;7391615;19;20186;-64
2023/01/22 08:01:09;;;;;;;18.73;7.67;;;;;;;1.23;100.00;102913.22;7393466;19;20174;-64
2023/01/22 08:03:40;;;;;;;12.53;5.47;;;;;;;1.17;100.00;102918.50;7390472;19;20427;-64
2023/01/22 08:06:10;;;;;;;13.40;4.83;;;;;;;1.09;100.00;102925.25;7392491;19;20415;-64
2023/01/22 08:08:41;;;;;;;11.15;5.60;;;;;;;1.05;100.00;102928.16;7392935;19;20439;-63
2023/01/22 08:11:14;;;;;;;18.17;6.53;;;;;;;1.08;100.00;102931.97;7392266;19;20183;-64
2023/01/22 08:13:43;;;;;;;13.63;6.07;;;;;;;1.16;100.00;102932.84;7391170;19;20435;-64
2023/01/22 08:16:13;;;;;;;10.37;5.40;;;;;;;1.12;100.00;102945.06;7393568;19;20411;-63
2023/01/22 08:18:42;;;;;;;10.87;5.67;;;;;;;1.05;100.00;102948.50;7388445;19;20435;-63
2023/01/22 08:21:12;;;;;;;9.47;3.23;;;;;;;1.02;100.00;102954.16;7393264;19;20451;-63
2023/01/22 08:23:41;;;;;;;12.88;5.20;;;;;;;1.12;100.00;102948.47;7387627;19;20935;-63
2023/01/22 08:26:18;;;;;;;7.13;4.20;;;;;;;0.92;100.00;102946.19;7391722;19;20139;-64
2023/01/22 08:28:47;;;;;;;9.60;4.23;;;;;;;0.89;100.00;102954.38;7391891;19;20451;-64
2023/01/22 08:31:17;;;;;;;11.23;5.20;;;;;;;0.85;100.00;102957.28;7392660;19;20456;-64
2023/01/22 08:33:56;;;;;;;9.73;4.20;;;;;;;0.84;100.00;102958.00;7390552;19;20193;-63
2023/01/22 08:36:26;;;;;;;15.68;5.22;;;;;;;0.86;100.00;102955.66;7392565;19;20417;-64
2023/01/22 08:38:56;;;;;;;10.70;4.37;;;;;;;0.84;100.00;102952.00;7389412;19;20940;-64
2023/01/22 08:41:28;;;;;;;9.30;4.60;;;;;;;0.84;100.00;102947.84;7391549;19;20463;-64
2023/01/22 08:43:57;;;;;;;12.55;5.20;;;;;;;0.88;100.00;102947.44;7390367;19;20449;-64
2023/01/22 08:46:26;;;;;;;8.50;4.77;;;;;;;0.89;100.00;102951.84;7393167;19;20171;-63
2023/01/22 08:48:56;;;;;;;8.13;4.07;;;;;;;0.93;100.00;102948.91;7389267;19;20446;-64
2023/01/22 08:51:26;;;;;;;29.83;5.77;;;;;;;0.93;100.00;102948.00;7391025;19;20561;-64
2023/01/22 08:53:55;;;;;;;10.50;4.20;;;;;;;0.91;100.00;102950.38;7372759;19;20423;-64
2023/01/22 08:56:27;;;;;;;7.63;4.35;;;;;;;0.89;100.00;102941.66;7392390;19;20564;-64
2023/01/22 08:58:59;;;;;;;12.38;5.00;;;;;;;0.89;100.00;102944.22;7390292;19;20194;-64
2023/01/22 09:01:29;;;;;;;8.45;4.53;;;;;;;0.91;100.00;102940.19;7390481;19;20578;-64
2023/01/22 09:04:01;;;;;;;9.85;3.85;;;;;;;0.90;100.00;102943.47;7389575;19;20195;-64
2023/01/22 09:06:30;;;;;;;9.70;5.30;;;;;;;0.93;100.00;102948.00;7392606;19;20253;-64
2023/01/22 09:09:00;;;;;;;11.43;5.27;;;;;;;0.97;100.00;102934.91;7387619;19;20425;-65
2023/01/22 09:11:33;;;;;;;17.65;5.53;;;;;;;0.97;100.00;102944.19;7390657;19;20475;-64
2023/01/22 09:14:02;;;;;;;11.00;4.73;;;;;;;1.00;100.00;102934.34;7389223;19;20186;-64
2023/01/22 09:16:34;;;;;;;10.93;4.67;;;;;;;1.01;100.00;102939.63;7392413;19;20416;-64
2023/01/22 09:19:03;;;;;;;12.15;4.60;;;;;;;0.97;100.00;102929.81;7397060;19;20493;-64
2023/01/22 09:21:36;;;;;;;16.03;5.30;;;;;;;1.02;100.00;102927.84;7397826;19;20170;-64
2023/01/22 09:24:06;;;;;;;17.57;5.47;;;;;;;1.03;100.00;102932.19;7396830;19;20435;-64
2023/01/22 09:26:39;;;;;;;10.63;4.00;;;;;;;1.04;100.00;102931.44;7399048;19;20429;-64
2023/01/22 09:29:08;;;;;;;15.00;4.57;;;;;;;1.10;100.00;102932.16;7396456;19;20439;-65
2023/01/22 09:31:38;;;;;;;15.55;4.75;;;;;;;1.06;100.00;102930.91;7396003;19;20450;-64
2023/01/22 09:34:08;;;;;;;9.00;4.23;;;;;;;1.07;100.00;102932.69;7396357;19;20186;-64
2023/01/22 09:36:37;;;;;;;9.70;4.50;;;;;;;1.11;100.00;102926.34;7399777;19;20785;-65
2023/01/22 09:39:07;;;;;;;9.67;3.97;;;;;;;1.08;100.00;102928.53;7395377;19;20850;-64
2023/01/22 09:41:40;;;;;;;10.13;4.30;;;;;;;1.08;100.00;102928.53;7397471;19;20443;-63
2023/01/22 09:44:14;;;;;;;15.40;5.23;;;;;;;1.09;100.00;102935.44;7395924;19;20678;-63
2023/01/22 09:46:47;;;;;;;14.10;4.90;;;;;;;1.14;100.00;102936.88;7397732;19;20408;-63
2023/01/22 09:49:19;;;;;;;14.02;4.75;;;;;;;1.15;100.00;102938.69;7394917;19;20186;-63
2023/01/22 09:51:51;;;;;;;25.88;10.25;;;;;;;1.35;100.00;102929.88;7398091;19;20163;-63
2023/01/22 09:54:21;;;;;;;16.35;6.18;;;;;;;1.41;100.00;102930.56;7395077;19;20194;-63
2023/01/22 09:56:55;;;;;;;20.80;8.73;;;;;;;1.43;100.00;102931.66;7397147;19;20158;-62
2023/01/22 09:59:28;;;;;;;31.80;12.17;;;;;;;1.94;100.00;102935.56;7395598;19;20780;-63
2023/01/22 10:02:00;;;;;;;19.47;7.70;;;;;;;2.52;100.00;102918.13;7397053;19;20418;-63
2023/01/22 10:04:35;;;;;;;61.23;27.40;;;;;;;2.27;100.00;102943.47;7395571;19;20435;-63
2023/01/22 10:07:08;;;;;;;21.57;10.27;;;;;;;2.60;100.00;102935.94;7398068;19;20744;-63
2023/01/22 10:09:39;;;;;;;28.80;11.60;;;;;;;2.82;100.00;102942.59;7397874;19;20492;-64
2023/01/22 10:12:14;;;;;;;13.60;6.53;;;;;;;2.39;100.00;102958.31;7397881;19;20428;-64
2023/01/22 10:14:44;;;;;;;18.57;8.53;;;;;;;2.22;100.00;102969.19;7396749;19;20466;-64
2023/01/22 10:17:19;;;;;;;15.30;6.50;;;;;;;2.14;100.00;102975.97;7394617;19;20808;-63
2023/01/22 10:19:50;;;;;;;17.30;7.23;;;;;;;2.13;100.00;102979.25;7396938;19;20421;-63
2023/01/22 10:22:22;;;;;;;9.23;5.03;;;;;;;2.11;100.00;102984.16;7394127;19;20408;-64
2023/01/22 10:24:52;;;;;;;8.00;4.57;;;;;;;2.25;100.00;102982.28;7396879;19;20418;-63
2023/01/22 10:27:27;;;;;;;15.57;6.07;;;;;;;2.38;100.00;102981.97;7393975;19;20407;-64
2023/01/22 10:30:00;;;;;;;18.53;6.03;;;;;;;2.35;100.00;102986.75;7396901;19;20493;-63
2023/01/22 10:32:31;;;;;;;11.60;4.40;;;;;;;2.11;100.00;102985.81;7394998;19;20750;-63
2023/01/22 10:35:03;;;;;;;13.67;5.10;;;;;;;1.94;100.00;102979.72;7397278;19;20404;-64
2023/01/22 10:37:44;;;;;;;11.20;4.67;;;;;;;1.84;100.00;102987.09;7394407;19;21380;-64
2023/01/22 10:40:25;;;;;;;15.03;6.37;;;;;;;1.99;100.00;102981.16;7395272;19;20443;-63
2023/01/22 10:43:13;;;;;;;26.73;10.50;;;;;;;2.06;100.00;102979.31;7392538;19;20469;-64
2023/01/22 10:45:53;;;;;;;9.17;3.93;;;;;;;2.10;100.00;102978.91;7395381;19;20937;-64
2023/01/22 10:48:23;;;;;;;6.03;3.63;;;;;;;2.02;100.00;102972.97;7393901;19;20850;-63
2023/01/22 10:51:02;;;;;;;13.10;3.87;;;;;;;1.93;100.00;102975.38;7395060;19;20443;-64
2023/01/22 10:53:34;;;;;;;12.57;4.37;;;;;;;1.82;100.00;102965.63;7389379;19;20563;-63
2023/01/22 10:56:05;;;;;;;10.27;4.10;;;;;;;1.91;100.00;102964.13;7394040;19;20377;-63
2023/01/22 10:58:41;;;;;;;9.50;4.20;;;;;;;1.91;100.00;102960.66;7393601;19;20470;-64
2023/01/22 11:01:26;;;;;;;12.60;4.20;;;;;;;1.91;100.00;102959.03;7394301;19;20456;-63
2023/01/22 11:03:56;;;;;;;8.90;3.90;;;;;;;2.01;100.00;102954.22;7392528;19;20514;-63
2023/01/22 11:06:28;;;;;;;8.07;3.80;;;;;;;2.00;100.00;102956.63;7395485;19;20734;-63
2023/01/22 11:09:01;;;;;;;8.10;3.10;;;;;;;1.93;100.00;102961.72;7393982;19;20900;-63
2023/01/22 11:11:36;;;;;;;9.30;3.13;;;;;;;1.96;100.00;102965.56;7394135;19;20441;-63
2023/01/22 11:14:13;;;;;;;8.33;3.83;;;;;;;2.04;100.00;102957.88;7393312;19;20441;-63
2023/01/22 11:16:44;;;;;;;13.70;3.80;;;;;;;2.05;100.00;102959.66;7394869;19;20432;-63
2023/01/22 11:19:15;;;;;;;5.00;3.00;;;;;;;2.09;100.00;102957.63;7392634;19;20439;-63
2023/01/22 11:21:51;;;;;;;8.17;2.90;;;;;;;2.07;100.00;102948.00;7395484;19;20418;-63
2023/01/22 11:24:26;;;;;;;17.10;5.40;;;;;;;2.08;100.00;102952.34;7391363;19;20451;-63
2023/01/22 11:27:08;;;;;;;13.33;3.00;;;;;;;2.09;100.00;102951.59;7394858;19;20432;-64
2023/01/22 11:29:53;;;;;;;5.77;2.93;;;;;;;2.02;100.00;102956.03;7394464;19;20838;-63
2023/01/22 11:32:37;;;;;;;7.07;3.47;;;;;;;2.06;100.00;102947.13;7389662;19;20813;-63
2023/01/22 11:35:18;;;;;;;10.43;3.57;;;;;;;2.21;100.00;102936.81;7394050;19;20977;-63
2023/01/22 11:37:58;;;;;;;8.27;3.57;;;;;;;2.29;100.00;102943.66;7391412;19;20418;-63
2023/01/22 11:40:30;;;;;;;13.90;4.50;;;;;;;2.14;100.00;102947.94;7391413;19;20441;-63
2023/01/22 11:43:17;;;;;;;11.43;3.87;;;;;;;2.18;100.00;102944.09;7391923;19;20873;-63
2023/01/22 11:45:55;;;;;;;15.00;3.80;;;;;;;2.18;100.00;102945.00;7394355;19;20394;-63
2023/01/22 11:48:36;;;;;;;7.63;3.37;;;;;;;2.13;100.00;102943.59;7391556;19;20947;-63
2023/01/22 11:51:25;;;;;;;7.87;3.77;;;;;;;2.07;100.00;102942.91;7393356;19;21225;-63